Accueil
METAR-TAF:

METAR-TAF

Aéroports :

Cardiff, Pays de Galles

Aéroport international de Cardiff

latitude: 51-24N, longitude: 003-21W, altitude: 67 m

Observation

Le bulletin a été fait il y a 34 minutes, à 20:50 UTC
Vent 2 kt de ouest/sud-ouest
Température 6°C
Humidité 75%
Pression 1021 hPa
Visibilité 10 km ou plus

METAR: EGFF 262050Z AUTO 25002KT 9999 NCD 06/02 Q1021

Heure: 22:24 (21:24 UTC)

Prévision

Le bulletin a été fait il y a 1 heure et 25 minutes, à 19:59 UTC
Prévision valable du 26 à 19 UTC au 27 à 18 UTC
Vent 8 kt de nord-est
Visibilité 10 km ou plus
Nuages épars à une hauteur de 4500 ft
Evoluant progressivement
du 27 à 06 UTC au 27 à 09 UTC
Vent 12 kt de ouest/nord-ouest
Temporairement
du 27 à 13 UTC au 27 à 18 UTC
Visibilité: 8000 m
pluie faible

TAF: EGFF 261959Z 2619/2718 04008KT 9999 SCT045 BECMG 2706/2709 30012KT TEMPO 2713/2718 8000 -RA

Observations et prévisions météorologiques de plus de 4000 aéroports (messages METAR et TAF).

Les stations disponibles sont représentées par des disques jaunes et rouges sur la carte.

Passer la souris dessus pour voir le nom de la station.

Cliquer dessus pour voir les observations et prévisions météorologiques.

Pour changer de carte: cliquez sur les boutons verts avec une croix noire pour zoomer, sur le bouton vert avec un tiret pour effectuer un zoom arrière, ou sur les flèches vertes pour les cartes adjacentes.


METAR-TAF: